Time;durP1;ratioP1;P1;durP2;ratioP2;P2;SDS_P1;SDS_P2;PMS_P1;PMS_P2;Temp;Humidity;BMP_temperature;BMP_pressure;BME280_temperature;BME280_humidity;BME280_pressure;Samples;Min_cycle;Max_cycle;Signal;HPM_P1;HPM_P2
2021/04/06 00:00:32;;;;;;;7.35;3.05;;;;;;;13.77;45.85;99410.38;5064924;28;20035;-81
2021/04/06 00:03:22;;;;;;;4.18;3.10;;;;;;;13.70;45.79;99405.59;5063023;28;20051;-81
2021/04/06 00:06:08;;;;;;;7.55;2.85;;;;;;;13.66;46.35;99399.31;5076462;28;20040;-80
2021/04/06 00:08:53;;;;;;;12.80;3.33;;;;;;;13.59;46.13;99391.00;5072865;28;20040;-80
2021/04/06 00:11:47;;;;;;;10.65;3.83;;;;;;;13.67;46.08;99389.94;5071958;28;20056;-81
2021/04/06 00:14:32;;;;;;;7.10;4.50;;;;;;;13.55;46.45;99380.03;5074117;28;20044;-81
2021/04/06 00:17:19;;;;;;;8.35;4.00;;;;;;;13.64;46.27;99383.28;5080789;28;20051;-81
2021/04/06 00:20:06;;;;;;;5.68;3.30;;;;;;;13.60;46.09;99382.44;5071927;28;20040;-81
2021/04/06 00:22:51;;;;;;;9.32;4.10;;;;;;;13.66;46.03;99378.22;5073498;28;20043;-82
2021/04/06 00:25:41;;;;;;;7.75;3.10;;;;;;;13.56;46.47;99367.16;5072919;28;20409;-80
2021/04/06 00:28:31;;;;;;;7.07;3.60;;;;;;;13.51;46.68;99365.50;5070488;28;20086;-80
2021/04/06 00:31:17;;;;;;;9.10;3.53;;;;;;;13.65;46.18;99371.19;5076533;28;20047;-82
2021/04/06 00:34:03;;;;;;;5.22;3.03;;;;;;;13.42;46.68;99370.44;5073040;28;20043;-81
2021/04/06 00:36:53;;;;;;;8.07;3.30;;;;;;;13.51;46.73;99376.44;5073015;28;20052;-80
2021/04/06 00:39:40;;;;;;;9.00;3.92;;;;;;;13.56;46.49;99369.88;5074079;28;20428;-81
2021/04/06 00:42:28;;;;;;;6.35;3.35;;;;;;;13.54;46.53;99362.06;5074407;28;20083;-80
2021/04/06 00:45:16;;;;;;;7.93;3.42;;;;;;;13.56;46.46;99358.97;5071561;28;20516;-81
2021/04/06 00:48:12;;;;;;;8.15;4.10;;;;;;;13.46;46.81;99362.31;5065954;28;20523;-81
2021/04/06 00:51:21;;;;;;;5.70;3.20;;;;;;;13.45;46.84;99344.34;5073468;28;20048;-80
2021/04/06 00:54:13;;;;;;;9.03;3.23;;;;;;;13.40;46.87;99350.94;5075345;28;20412;-81
2021/04/06 00:57:01;;;;;;;;;;;;;;;13.70;46.20;99351.75;5077951;28;20158;-80
2021/04/06 01:00:24;;;;;;;4.85;3.13;;;;;;;13.67;46.10;99347.00;5078857;28;20384;-80
2021/04/06 01:03:14;;;;;;;6.63;3.13;;;;;;;13.46;46.59;99335.00;5078192;28;20059;-79
2021/04/06 01:05:58;;;;;;;11.20;3.53;;;;;;;13.32;46.97;99330.09;5074661;28;20047;-78
2021/04/06 01:08:43;;;;;;;6.13;2.90;;;;;;;13.35;46.73;99340.31;5070796;28;20047;-81
2021/04/06 01:11:28;;;;;;;5.72;2.75;;;;;;;13.31;47.09;99344.91;5069962;28;20440;-80
2021/04/06 01:14:15;;;;;;;;;;;;;;;13.20;46.93;99333.84;5076072;28;20063;-79
2021/04/06 01:17:03;;;;;;;9.07;3.72;;;;;;;13.27;46.82;99316.78;5079579;28;19920;-81
2021/04/06 01:19:49;;;;;;;12.82;4.90;;;;;;;13.21;46.96;99318.25;5078934;28;20059;-81
2021/04/06 01:22:35;;;;;;;9.15;4.28;;;;;;;13.24;46.81;99323.78;5080952;28;20063;-80
2021/04/06 01:25:23;;;;;;;7.68;3.28;;;;;;;13.32;46.23;99319.19;5077711;28;20039;-81
2021/04/06 01:28:09;;;;;;;7.18;3.13;;;;;;;13.10;46.67;99300.91;5080866;28;20417;-80
2021/04/06 01:30:56;;;;;;;11.15;3.60;;;;;;;13.01;46.79;99308.53;5088507;28;20035;-82
2021/04/06 01:33:42;;;;;;;5.60;3.75;;;;;;;13.10;46.93;99301.69;5077471;28;20408;-82
2021/04/06 01:36:28;;;;;;;4.68;3.10;;;;;;;13.09;46.63;99288.41;5076073;28;20039;-81
2021/04/06 01:39:15;;;;;;;6.47;3.05;;;;;;;12.95;46.85;99280.00;5075090;28;20043;-82
2021/04/06 01:42:02;;;;;;;6.10;3.15;;;;;;;12.51;48.18;99269.53;5077069;28;20043;-81
2021/04/06 01:44:49;;;;;;;8.05;3.00;;;;;;;12.85;47.13;99273.97;5072764;28;20044;-80
2021/04/06 01:47:35;;;;;;;11.88;3.78;;;;;;;13.01;46.74;99275.78;5073962;28;20043;-81
2021/04/06 01:50:20;;;;;;;7.95;3.55;;;;;;;12.73;47.69;99265.22;5075972;28;20048;-82
2021/04/06 01:53:06;;;;;;;6.65;3.25;;;;;;;12.76;47.48;99264.47;5078613;28;20412;-81
2021/04/06 01:55:59;;;;;;;4.78;2.85;;;;;;;12.66;47.70;99263.16;5074448;28;20047;-81
2021/04/06 01:58:50;;;;;;;8.07;3.33;;;;;;;12.43;48.42;99260.44;5074307;28;20060;-80
2021/04/06 02:01:35;;;;;;;6.88;3.47;;;;;;;12.60;48.07;99255.63;5083802;28;20051;-79
2021/04/06 02:04:25;;;;;;;6.68;2.70;;;;;;;12.46;48.41;99258.91;5074959;28;20043;-81
2021/04/06 02:07:13;;;;;;;7.10;3.35;;;;;;;12.09;49.27;99246.97;5077245;28;20523;-80
2021/04/06 02:09:59;;;;;;;7.55;3.05;;;;;;;12.51;48.03;99247.72;5072197;28;20059;-81
2021/04/06 02:12:45;;;;;;;10.60;3.78;;;;;;;12.67;47.35;99247.59;5063318;28;20039;-81
2021/04/06 02:15:30;;;;;;;7.20;2.92;;;;;;;12.66;47.52;99249.53;5064251;28;20063;-80
2021/04/06 02:18:21;;;;;;;9.57;2.55;;;;;;;12.76;47.29;99243.44;5073446;28;20048;-81
2021/04/06 02:21:07;;;;;;;5.47;3.53;;;;;;;12.64;47.62;99235.47;5078825;28;20039;-79
2021/04/06 02:23:52;;;;;;;5.22;3.63;;;;;;;12.64;47.46;99235.47;5075871;28;20052;-81
2021/04/06 02:26:37;;;;;;;6.55;4.13;;;;;;;12.28;48.50;99238.75;5076192;28;20051;-78
2021/04/06 02:29:23;;;;;;;7.93;2.80;;;;;;;12.47;47.91;99240.63;5048535;28;20047;-81
2021/04/06 02:32:26;;;;;;;9.65;3.47;;;;;;;12.44;47.78;99236.69;5077231;28;20044;-81
2021/04/06 02:35:13;;;;;;;4.53;3.25;;;;;;;12.46;47.90;99233.59;5074088;28;20048;-81
2021/04/06 02:37:58;;;;;;;10.02;3.30;;;;;;;12.44;47.80;99229.28;5072504;28;20052;-80
2021/04/06 02:40:43;;;;;;;6.30;3.92;;;;;;;12.46;47.71;99223.47;5079543;28;20044;-81
2021/04/06 02:43:47;;;;;;;6.30;3.10;;;;;;;12.55;47.61;99224.00;5073319;28;20055;-81
2021/04/06 02:46:35;;;;;;;5.30;3.58;;;;;;;12.48;48.06;99213.00;5077598;28;20123;-81
2021/04/06 02:49:20;;;;;;;10.02;4.05;;;;;;;12.61;47.46;99211.66;5075916;28;20044;-81
2021/04/06 02:52:05;;;;;;;7.45;4.25;;;;;;;12.66;47.27;99205.88;5072933;28;20051;-81
2021/04/06 02:54:50;;;;;;;4.03;3.08;;;;;;;12.64;47.23;99202.75;5072346;28;20043;-81
2021/04/06 02:57:42;;;;;;;7.07;2.45;;;;;;;12.74;47.50;99207.59;5076714;28;20051;-81
2021/04/06 03:00:27;;;;;;;5.63;3.15;;;;;;;12.73;47.57;99208.72;5072337;28;20412;-81
2021/04/06 03:03:27;;;;;;;4.25;2.75;;;;;;;12.82;47.18;99205.75;5077556;28;20051;-81
2021/04/06 03:06:14;;;;;;;5.55;3.20;;;;;;;12.67;47.60;99202.00;5077805;28;20051;-79
2021/04/06 03:08:59;;;;;;;5.68;3.55;;;;;;;12.66;47.26;99197.69;5072225;28;20055;-80
2021/04/06 03:11:50;;;;;;;6.72;3.85;;;;;;;12.76;47.09;99199.00;5077327;28;20039;-81
2021/04/06 03:14:35;;;;;;;6.65;3.50;;;;;;;12.65;47.23;99187.94;5073833;28;20051;-80
2021/04/06 03:17:21;;;;;;;6.20;3.25;;;;;;;12.82;46.86;99192.09;5073105;28;20051;-82
2021/04/06 03:20:11;;;;;;;8.38;3.50;;;;;;;12.81;47.21;99196.75;5079350;28;20515;-80
2021/04/06 03:22:56;;;;;;;8.93;3.60;;;;;;;12.76;47.03;99202.53;5071162;28;20040;-80
2021/04/06 03:25:43;;;;;;;6.28;2.88;;;;;;;12.71;47.41;99207.50;5072543;28;20040;-79
2021/04/06 03:28:36;;;;;;;7.95;3.20;;;;;;;12.56;47.82;99202.97;5076735;28;20044;-80
2021/04/06 03:31:22;;;;;;;9.23;3.83;;;;;;;12.57;47.82;99205.34;5073279;28;20087;-79
2021/04/06 03:34:09;;;;;;;8.60;3.13;;;;;;;12.68;47.79;99198.13;5067536;28;20040;-81
2021/04/06 03:36:55;;;;;;;5.18;3.42;;;;;;;12.43;48.64;99191.50;5075201;28;20405;-81
2021/04/06 03:39:40;;;;;;;5.18;2.92;;;;;;;12.41;48.69;99196.50;5072366;28;20051;-81
2021/04/06 03:42:27;;;;;;;6.20;2.08;;;;;;;12.45;48.98;99197.34;5069010;28;20515;-82
2021/04/06 03:45:12;;;;;;;7.32;3.20;;;;;;;12.28;49.19;99189.69;5074021;28;20063;-81
2021/04/06 03:47:59;;;;;;;7.68;3.35;;;;;;;12.57;48.50;99185.47;5074384;28;20432;-81
2021/04/06 03:50:44;;;;;;;8.43;3.90;;;;;;;12.59;48.52;99194.09;5071352;28;20136;-80
2021/04/06 03:53:39;;;;;;;8.90;3.25;;;;;;;12.53;49.05;99179.97;5073577;28;20047;-82
2021/04/06 03:56:31;;;;;;;8.10;3.38;;;;;;;12.63;48.52;99171.19;5073282;28;20055;-81
2021/04/06 03:59:16;;;;;;;10.25;3.95;;;;;;;12.69;48.38;99172.44;5076740;28;20059;-80
2021/04/06 04:02:01;;;;;;;4.90;2.78;;;;;;;12.58;49.02;99166.03;5074519;28;20039;-81
2021/04/06 04:04:46;;;;;;;5.70;3.05;;;;;;;12.83;48.44;99167.19;5073411;28;20048;-80
2021/04/06 04:07:33;;;;;;;8.60;2.85;;;;;;;13.13;47.68;99169.97;5066754;28;20405;-81
2021/04/06 04:10:17;;;;;;;7.32;3.30;;;;;;;13.05;47.57;99172.94;5074214;28;20047;-80
2021/04/06 04:13:02;;;;;;;;;;;;;;;12.70;48.83;99176.72;5072942;28;20520;-79
2021/04/06 04:15:47;;;;;;;5.75;2.85;;;;;;;12.41;49.77;99171.97;5104317;22;19920;-79
2021/04/06 04:18:32;;;;;;;4.97;2.67;;;;;;;12.53;49.25;99171.00;5108265;28;20530;-79
2021/04/06 04:21:17;;;;;;;11.55;2.70;;;;;;;12.59;49.09;99181.25;5116332;28;20046;-79
2021/04/06 04:24:02;;;;;;;;;;;;;;;12.73;48.63;99181.47;5112311;28;20070;-78
2021/04/06 04:26:47;;;;;;;5.47;3.15;;;;;;;12.65;49.05;99176.25;5109847;28;19920;-78
2021/04/06 04:29:32;;;;;;;3.33;2.30;;;;;;;12.37;49.73;99182.03;5118454;28;20055;-78
2021/04/06 04:32:17;;;;;;;5.88;3.35;;;;;;;12.29;50.00;99185.81;5115052;28;20042;-78
2021/04/06 04:35:03;;;;;;;4.05;2.17;;;;;;;12.30;49.82;99190.88;5118557;28;20156;-78
2021/04/06 04:37:48;;;;;;;9.45;4.07;;;;;;;12.18;50.29;99198.47;5122985;28;20670;-79
2021/04/06 04:40:38;;;;;;;7.93;2.80;;;;;;;12.25;50.23;99206.75;5119693;28;20039;-79
2021/04/06 04:43:24;;;;;;;21.05;5.03;;;;;;;12.35;49.83;99211.59;5122156;28;20057;-78
2021/04/06 04:46:09;;;;;;;;;;;;;;;12.34;49.99;99202.63;5121922;28;20522;-79
2021/04/06 04:48:57;;;;;;;8.52;3.65;;;;;;;12.36;50.03;99196.81;5127345;28;19911;-79
2021/04/06 04:51:42;;;;;;;8.73;3.97;;;;;;;12.03;50.74;99216.50;5125401;28;20038;-79
2021/04/06 04:54:27;;;;;;;7.68;2.63;;;;;;;12.23;50.63;99215.31;5123903;28;20046;-79
2021/04/06 04:57:12;;;;;;;11.10;3.47;;;;;;;12.36;50.37;99213.19;5123468;28;20434;-79
2021/04/06 04:59:57;;;;;;;;;;;;;;;12.95;49.06;99220.75;5126192;27;20043;-79
2021/04/06 05:02:43;;;;;;;9.88;3.28;;;;;;;12.72;49.53;99220.00;5119246;28;19920;-79
2021/04/06 05:05:28;;;;;;;26.92;5.75;;;;;;;12.75;49.29;99213.81;5118864;27;20042;-78
2021/04/06 05:08:13;;;;;;;14.90;4.32;;;;;;;12.58;49.92;99219.78;5121506;28;20051;-79
2021/04/06 05:10:58;;;;;;;;;;;;;;;12.51;50.28;99228.63;5121685;27;20043;-79
2021/04/06 05:13:43;;;;;;;19.13;4.82;;;;;;;12.43;50.74;99233.19;5122807;27;19912;-78
2021/04/06 05:16:28;;;;;;;5.65;2.92;;;;;;;12.66;50.10;99224.97;5117129;28;20035;-79
2021/04/06 05:19:13;;;;;;;7.70;4.05;;;;;;;12.53;50.64;99223.59;5124082;28;20043;-79
2021/04/06 05:21:58;;;;;;;14.63;3.13;;;;;;;12.60;49.97;99229.16;5127870;27;20042;-80
2021/04/06 05:24:43;;;;;;;;;;;;;;;12.30;51.11;99230.97;5124510;28;20039;-78
2021/04/06 05:27:28;;;;;;;12.75;4.30;;;;;;;12.42;50.43;99222.63;5119686;28;19912;-79
2021/04/06 05:30:13;;;;;;;9.18;3.85;;;;;;;12.47;49.93;99227.78;5127948;27;20055;-79
2021/04/06 05:32:59;;;;;;;7.43;3.40;;;;;;;12.52;50.01;99227.47;5124139;28;20050;-79
2021/04/06 05:35:44;;;;;;;11.95;3.78;;;;;;;12.57;49.93;99235.34;5123121;27;20051;-79
2021/04/06 05:38:29;;;;;;;19.75;5.40;;;;;;;12.70;49.38;99235.94;5122413;27;20050;-80
2021/04/06 05:41:15;;;;;;;12.02;3.85;;;;;;;12.93;48.75;99247.63;5118558;27;20039;-79
2021/04/06 05:44:03;;;;;;;15.55;6.45;;;;;;;12.88;49.35;99236.22;5117012;28;20054;-79
2021/04/06 05:46:52;;;;;;;16.83;5.38;;;;;;;12.95;49.78;99236.34;5120629;28;20034;-80
2021/04/06 05:49:38;;;;;;;20.65;3.92;;;;;;;12.76;49.94;99238.00;5124157;28;20042;-78
2021/04/06 05:52:23;;;;;;;10.77;4.32;;;;;;;12.56;51.26;99239.22;5118646;28;20407;-78
2021/04/06 05:55:09;;;;;;;58.08;5.32;;;;;;;12.33;51.26;99241.97;5116115;28;20408;-79
2021/04/06 05:57:55;;;;;;;10.75;3.95;;;;;;;12.36;51.75;99248.63;5112813;28;20054;-79
2021/04/06 06:00:39;;;;;;;9.88;4.18;;;;;;;12.38;51.26;99246.31;5116910;28;20537;-78
2021/04/06 06:03:24;;;;;;;6.60;3.05;;;;;;;12.21;51.46;99250.28;5110417;28;20058;-78
2021/04/06 06:06:09;;;;;;;11.50;3.40;;;;;;;12.12;51.87;99243.50;5121603;28;20050;-79
2021/04/06 06:08:59;;;;;;;9.35;3.88;;;;;;;12.24;51.56;99243.34;5120632;28;20050;-79
2021/04/06 06:12:05;;;;;;;15.30;4.40;;;;;;;12.42;51.26;99252.63;5132672;28;20058;-79
2021/04/06 06:14:51;;;;;;;;;;;;;;;12.66;50.48;99248.72;5128314;28;20051;-79
2021/04/06 06:17:36;;;;;;;;;;;;;;;12.64;50.49;99253.78;5127741;28;19911;-79
2021/04/06 06:20:21;;;;;;;13.00;4.78;;;;;;;12.66;50.52;99260.44;5129813;28;20290;-79
2021/04/06 06:23:20;;;;;;;45.92;6.95;;;;;;;12.43;51.51;99257.72;5125072;28;20051;-79
2021/04/06 06:26:06;;;;;;;15.00;4.55;;;;;;;12.68;51.61;99252.69;5121390;28;20054;-80
2021/04/06 06:29:08;;;;;;;16.42;4.57;;;;;;;12.69;50.46;99250.75;5126649;28;20051;-79
2021/04/06 06:31:58;;;;;;;11.90;4.25;;;;;;;12.53;51.29;99255.53;5114923;28;20034;-78
2021/04/06 06:34:43;;;;;;;13.02;4.00;;;;;;;12.52;52.45;99259.41;5125674;28;20054;-79
2021/04/06 06:37:28;;;;;;;11.13;3.08;;;;;;;12.55;52.63;99255.94;5118966;28;20051;-77
2021/04/06 06:40:13;;;;;;;21.58;5.35;;;;;;;12.58;53.16;99256.03;5112461;28;20062;-78
2021/04/06 06:42:58;;;;;;;21.15;5.20;;;;;;;12.66;53.16;99263.16;5118351;28;20522;-78
2021/04/06 06:45:45;;;;;;;19.73;3.60;;;;;;;12.84;52.15;99261.53;5114670;28;20043;-78
2021/04/06 06:48:32;;;;;;;11.65;3.35;;;;;;;12.74;52.03;99264.06;5114592;28;20403;-79
2021/04/06 06:51:17;;;;;;;20.23;3.92;;;;;;;12.63;52.71;99266.63;5111980;28;20043;-79
2021/04/06 06:54:07;;;;;;;13.27;3.50;;;;;;;12.72;53.11;99274.56;5120839;28;20039;-79
2021/04/06 06:57:06;;;;;;;14.70;3.80;;;;;;;12.88;53.40;99271.69;5116221;28;20046;-78
2021/04/06 06:59:52;;;;;;;15.02;3.72;;;;;;;12.81;53.57;99278.59;5117194;28;20556;-79
2021/04/06 07:02:37;;;;;;;9.13;4.50;;;;;;;12.97;52.90;99273.00;5116396;28;20043;-78
2021/04/06 07:05:28;;;;;;;7.35;4.57;;;;;;;12.98;53.06;99271.06;5111420;28;20046;-79
2021/04/06 07:08:34;;;;;;;7.80;3.58;;;;;;;12.97;53.67;99269.50;5088951;27;20348;-77
2021/04/06 07:11:21;;;;;;;20.60;3.67;;;;;;;13.40;53.57;99268.22;5101199;28;20126;-82
2021/04/06 07:14:07;;;;;;;11.60;3.72;;;;;;;13.91;51.19;99269.28;5101152;28;20042;-80
2021/04/06 07:16:57;;;;;;;10.27;3.65;;;;;;;14.07;50.96;99266.31;5087288;28;20440;-81
2021/04/06 07:19:44;;;;;;;7.03;3.63;;;;;;;14.22;49.50;99275.47;5083340;28;20039;-82
2021/04/06 07:22:29;;;;;;;12.15;3.63;;;;;;;14.27;49.49;99272.41;5086308;28;20051;-81
2021/04/06 07:25:15;;;;;;;10.30;3.13;;;;;;;14.03;50.89;99282.69;5083156;28;20039;-82
2021/04/06 07:28:02;;;;;;;7.78;3.17;;;;;;;13.96;49.97;99276.34;5082508;28;20056;-82
2021/04/06 07:30:48;;;;;;;5.97;3.53;;;;;;;13.90;50.77;99280.56;5081369;28;20106;-84
2021/04/06 07:33:33;;;;;;;7.00;3.15;;;;;;;13.95;49.97;99275.56;5081071;28;20047;-81
2021/04/06 07:36:23;;;;;;;20.20;8.80;;;;;;;13.81;50.21;99285.53;5077814;28;20051;-81
2021/04/06 07:39:11;;;;;;;9.10;3.75;;;;;;;13.71;51.02;99281.53;5081499;28;20048;-82
2021/04/06 07:41:56;;;;;;;7.05;3.25;;;;;;;13.99;50.59;99298.25;5080937;28;20040;-82
2021/04/06 07:44:41;;;;;;;6.82;3.33;;;;;;;14.14;50.33;99300.00;5078784;28;20051;-82
2021/04/06 07:47:40;;;;;;;7.25;3.65;;;;;;;14.36;49.66;99301.06;5067749;28;20043;-83
2021/04/06 07:50:42;;;;;;;12.95;3.70;;;;;;;14.55;49.07;99302.78;5078078;28;20528;-83
2021/04/06 07:53:30;;;;;;;9.43;3.10;;;;;;;14.49;48.29;99296.88;5098659;28;20047;-82
2021/04/06 07:56:43;;;;;;;10.13;3.58;;;;;;;14.84;48.37;99299.16;5077527;28;20043;-82
2021/04/06 07:59:28;;;;;;;11.02;4.22;;;;;;;14.72;48.54;99301.41;5074444;28;20043;-82
2021/04/06 08:02:13;;;;;;;9.07;3.88;;;;;;;14.52;47.81;99309.81;5080162;28;20047;-81
2021/04/06 08:05:00;;;;;;;8.10;3.00;;;;;;;14.61;47.46;99311.44;5078635;28;20044;-82
2021/04/06 08:07:46;;;;;;;8.23;2.90;;;;;;;14.28;48.21;99310.28;5077343;28;20043;-82
2021/04/06 08:10:32;;;;;;;9.52;2.10;;;;;;;14.27;48.82;99316.94;5079762;28;20053;-82
2021/04/06 08:13:17;;;;;;;8.70;3.03;;;;;;;14.32;48.65;99326.75;5076978;28;20056;-82
2021/04/06 08:16:13;;;;;;;5.88;3.22;;;;;;;14.55;47.89;99322.72;5078038;28;20044;-82
2021/04/06 08:19:04;;;;;;;17.95;3.08;;;;;;;14.87;47.00;99344.16;5071527;28;20052;-82
2021/04/06 08:22:21;;;;;;;10.98;3.35;;;;;;;14.84;47.46;99339.41;5066771;28;20401;-81
2021/04/06 08:25:15;;;;;;;7.70;3.40;;;;;;;14.90;48.32;99343.38;5068562;28;20432;-82
2021/04/06 08:28:05;;;;;;;7.75;3.40;;;;;;;14.67;48.84;99345.53;5056116;28;20041;-82
2021/04/06 08:30:50;;;;;;;10.00;3.35;;;;;;;14.81;48.53;99342.91;5063898;28;20420;-82
2021/04/06 08:33:35;;;;;;;4.10;2.67;;;;;;;14.65;48.65;99343.16;5064917;28;20047;-82
2021/04/06 08:36:25;;;;;;;4.65;2.40;;;;;;;14.84;48.57;99350.38;5064102;28;20051;-82
2021/04/06 08:39:10;;;;;;;10.93;4.47;;;;;;;14.75;48.48;99353.41;5063123;28;20044;-82
2021/04/06 08:41:55;;;;;;;5.57;2.80;;;;;;;14.59;48.97;99350.13;5066723;28;20044;-81
2021/04/06 08:44:43;;;;;;;10.65;3.38;;;;;;;14.70;48.46;99356.50;5064613;28;20044;-81
2021/04/06 08:47:43;;;;;;;15.93;4.55;;;;;;;14.81;48.18;99351.13;5063727;28;20068;-81
2021/04/06 08:50:34;;;;;;;26.98;4.85;;;;;;;15.18;46.96;99354.59;5064603;28;20044;-81
2021/04/06 08:53:21;;;;;;;6.80;3.15;;;;;;;15.58;44.47;99342.78;5058306;28;20052;-81
2021/04/06 08:56:11;;;;;;;5.95;2.80;;;;;;;15.81;41.78;99348.00;5060480;28;20045;-82
2021/04/06 08:59:17;;;;;;;16.30;3.10;;;;;;;15.87;39.93;99351.94;5062153;28;20043;-82
2021/04/06 09:02:28;;;;;;;5.18;2.55;;;;;;;16.07;41.48;99347.72;5060908;28;20048;-81
2021/04/06 09:05:14;;;;;;;13.52;3.38;;;;;;;16.23;41.47;99348.19;5061739;28;20047;-82
2021/04/06 09:07:59;;;;;;;7.93;3.10;;;;;;;16.43;35.79;99345.91;5058817;28;20047;-81
2021/04/06 09:10:44;;;;;;;;;;;;;;;15.73;35.46;99351.88;5065032;28;20060;-81
2021/04/06 09:13:28;;;;;;;5.10;1.83;;;;;;;15.24;29.96;99347.56;5063335;28;20384;-80
2021/04/06 09:16:13;;;;;;;;;;;;;;;15.37;29.62;99359.03;5057883;28;20043;-82
2021/04/06 09:19:15;;;;;;;9.25;3.83;;;;;;;15.34;43.26;99359.78;5057459;28;19912;-82
2021/04/06 09:22:01;;;;;;;8.38;3.97;;;;;;;14.74;44.29;99362.00;5051669;28;20052;-83
2021/04/06 09:24:47;;;;;;;10.68;4.43;;;;;;;14.05;44.87;99367.84;5059527;28;20044;-82
2021/04/06 09:27:32;;;;;;;17.52;4.55;;;;;;;14.31;44.58;99369.72;5063366;28;20425;-82
2021/04/06 09:30:17;;;;;;;8.93;3.83;;;;;;;14.03;44.50;99374.81;5061983;28;20056;-82
2021/04/06 09:33:09;;;;;;;8.02;2.25;;;;;;;13.93;40.65;99373.53;5060928;28;20420;-82
2021/04/06 09:35:54;;;;;;;10.40;4.30;;;;;;;13.48;45.55;99384.56;5061755;28;20408;-84
2021/04/06 09:38:40;;;;;;;8.20;2.67;;;;;;;13.52;46.23;99386.19;5059374;28;20115;-84
2021/04/06 09:41:35;;;;;;;25.38;4.65;;;;;;;13.63;45.88;99384.44;5058513;28;20048;-84
2021/04/06 09:44:23;;;;;;;7.50;3.10;;;;;;;13.54;47.96;99386.63;5061014;28;20417;-83
2021/04/06 09:47:15;;;;;;;10.73;3.80;;;;;;;13.41;47.77;99393.44;5057252;28;20048;-84
2021/04/06 09:50:03;;;;;;;8.90;3.15;;;;;;;13.71;46.78;99394.28;5057712;28;20071;-84
2021/04/06 09:52:48;;;;;;;4.57;3.03;;;;;;;13.50;46.42;99396.72;5064144;28;20059;-84
2021/04/06 09:55:34;;;;;;;12.45;3.08;;;;;;;13.77;45.97;99400.22;5060031;28;20044;-83
2021/04/06 09:58:19;;;;;;;9.13;2.97;;;;;;;13.63;46.36;99398.09;5056480;28;20048;-83
2021/04/06 10:01:21;;;;;;;9.05;3.67;;;;;;;13.65;46.28;99395.78;5062265;28;20040;-82
2021/04/06 10:04:06;;;;;;;6.03;2.63;;;;;;;14.01;46.99;99410.75;5057270;28;20052;-82
2021/04/06 10:06:50;;;;;;;6.75;2.50;;;;;;;13.86;46.85;99402.72;5057386;28;20094;-82
2021/04/06 10:09:42;;;;;;;3.05;1.88;;;;;;;14.19;46.07;99401.97;5062303;28;20417;-83
2021/04/06 10:12:32;;;;;;;19.05;3.20;;;;;;;14.12;44.29;99416.31;5059639;28;20056;-82
2021/04/06 10:15:26;;;;;;;8.55;2.97;;;;;;;14.59;43.73;99413.03;5063204;28;20063;-82
2021/04/06 10:18:14;;;;;;;5.00;2.38;;;;;;;14.47;40.66;99425.03;5046551;28;20044;-81
2021/04/06 10:20:59;;;;;;;6.00;2.45;;;;;;;14.32;41.67;99404.13;5069962;22;20048;-80
2021/04/06 10:23:44;;;;;;;4.03;1.67;;;;;;;14.82;38.88;99435.59;5033362;28;20055;-78
2021/04/06 10:26:29;;;;;;;5.47;2.10;;;;;;;13.97;40.09;99441.88;5031832;28;20041;-80
2021/04/06 10:29:14;;;;;;;8.00;2.35;;;;;;;14.01;41.49;99437.28;5029433;28;21234;-81
2021/04/06 10:32:01;;;;;;;5.63;2.72;;;;;;;14.88;41.07;99447.00;5031856;28;20040;-80
2021/04/06 10:35:08;;;;;;;11.27;3.47;;;;;;;14.18;42.59;99452.34;5030517;28;20044;-79
2021/04/06 10:37:55;;;;;;;17.98;2.92;;;;;;;13.75;44.99;99461.88;5033094;28;20529;-81
2021/04/06 10:40:43;;;;;;;12.98;2.72;;;;;;;13.56;46.94;99471.72;5032174;28;20068;-80
2021/04/06 10:43:30;;;;;;;14.30;2.22;;;;;;;16.02;41.18;99484.41;5030057;28;20044;-81
2021/04/06 10:46:22;;;;;;;2.63;1.40;;;;;;;14.40;43.64;99479.63;5032500;28;20052;-79
2021/04/06 10:49:07;;;;;;;2.05;1.55;;;;;;;13.65;45.53;99485.94;5028317;28;20044;-81
2021/04/06 10:51:53;;;;;;;;;;;;;;;14.45;43.43;99479.31;5032645;28;20520;-80
2021/04/06 10:54:50;;;;;;;4.70;2.15;;;;;;;14.34;40.97;99494.75;5034160;28;19921;-79
2021/04/06 10:57:37;;;;;;;1.50;0.90;;;;;;;14.31;41.69;99487.31;5032607;28;20096;-80
2021/04/06 11:00:25;;;;;;;10.10;1.35;;;;;;;15.58;39.43;99495.44;5031538;28;20041;-79
2021/04/06 11:03:18;;;;;;;4.95;1.20;;;;;;;19.53;32.77;99508.06;5035382;28;20055;-81
2021/04/06 11:06:15;;;;;;;5.95;0.93;;;;;;;18.51;30.47;99500.25;5033473;28;20040;-80
2021/04/06 11:09:10;;;;;;;8.13;1.23;;;;;;;16.38;32.78;99510.13;5035270;28;20049;-80
2021/04/06 11:11:55;;;;;;;3.97;1.02;;;;;;;20.07;27.55;99534.03;5031941;28;20052;-81
2021/04/06 11:14:41;;;;;;;9.27;1.13;;;;;;;19.33;29.80;99533.78;5032464;28;20409;-79
2021/04/06 11:17:27;;;;;;;28.10;1.15;;;;;;;16.72;32.58;99540.91;5035912;28;20045;-81
2021/04/06 11:20:12;;;;;;;1.25;0.52;;;;;;;17.41;31.45;99564.31;5034236;28;20060;-81
2021/04/06 11:22:57;;;;;;;7.25;0.85;;;;;;;15.89;35.37;99544.28;5030570;28;20041;-81
2021/04/06 11:25:43;;;;;;;6.05;0.60;;;;;;;15.53;35.75;99547.84;5034989;28;20425;-82
2021/04/06 11:28:28;;;;;;;1.75;0.60;;;;;;;16.79;34.48;99552.72;5033425;28;20036;-81
2021/04/06 11:31:14;;;;;;;1.38;0.73;;;;;;;15.88;34.93;99563.81;5032096;28;20088;-78
2021/04/06 11:33:59;;;;;;;9.27;0.77;;;;;;;16.86;32.93;99565.69;5029910;28;20112;-80
2021/04/06 11:36:45;;;;;;;;;;;;;;;16.64;34.20;99575.78;5034859;28;20532;-79
2021/04/06 11:39:31;;;;;;;;;;;;;;;15.84;35.83;99569.28;5032859;28;19913;-80
2021/04/06 11:42:17;;;;;;;3.15;0.50;;;;;;;13.91;37.37;99558.97;5032990;28;19917;-82
2021/04/06 11:45:03;;;;;;;3.72;0.85;;;;;;;12.44;43.78;99574.75;5033826;28;20057;-82
2021/04/06 11:47:52;;;;;;;5.53;1.17;;;;;;;12.21;42.34;99571.88;5030416;28;20064;-81
2021/04/06 11:50:37;;;;;;;23.40;1.35;;;;;;;11.79;44.63;99570.84;5035433;28;20045;-81
2021/04/06 11:53:22;;;;;;;3.40;0.50;;;;;;;11.37;44.57;99546.03;5033803;28;20052;-81
2021/04/06 11:56:07;;;;;;;6.18;0.63;;;;;;;11.43;44.21;99574.56;5033969;28;20044;-81
2021/04/06 11:58:52;;;;;;;1.25;0.63;;;;;;;11.46;45.79;99576.59;5033328;28;20045;-81
2021/04/06 12:01:37;;;;;;;1.95;0.70;;;;;;;11.26;45.50;99564.78;5036246;28;20044;-80
2021/04/06 12:04:22;;;;;;;15.75;0.60;;;;;;;11.12;46.55;99597.81;5036448;28;20044;-81
2021/04/06 12:07:08;;;;;;;3.33;0.70;;;;;;;11.11;45.19;99593.53;5053985;28;20040;-80
2021/04/06 12:09:53;;;;;;;3.22;0.90;;;;;;;11.19;43.81;99591.00;5036861;28;20052;-81
2021/04/06 12:12:38;;;;;;;2.58;0.90;;;;;;;11.39;43.98;99600.88;5033022;28;20044;-80
2021/04/06 12:15:23;;;;;;;10.07;1.02;;;;;;;11.25;43.05;99589.63;5034355;28;20052;-80
2021/04/06 12:18:08;;;;;;;2.95;0.65;;;;;;;11.40;43.13;99594.31;5031378;28;20425;-80
2021/04/06 12:20:53;;;;;;;8.68;0.77;;;;;;;11.25;42.71;99587.69;5035173;28;20044;-80
2021/04/06 12:23:40;;;;;;;3.45;0.60;;;;;;;10.97;42.90;99598.56;5033503;28;20033;-80
2021/04/06 12:26:25;;;;;;;3.13;0.70;;;;;;;10.79;43.39;99604.63;5038378;28;20056;-80
2021/04/06 12:29:10;;;;;;;10.20;1.13;;;;;;;10.63;44.08;99596.38;5034584;28;20044;-81
2021/04/06 12:31:56;;;;;;;1.60;0.45;;;;;;;10.56;43.17;99590.75;5033522;28;20048;-81
2021/04/06 12:34:41;;;;;;;0.75;0.60;;;;;;;10.32;43.54;99626.06;5037670;28;20064;-80
2021/04/06 12:37:26;;;;;;;4.65;0.80;;;;;;;10.34;43.29;99619.19;5035702;28;20048;-80
2021/04/06 12:40:12;;;;;;;7.03;1.42;;;;;;;10.46;42.73;99630.06;5033187;28;20048;-80
2021/04/06 12:42:57;;;;;;;2.25;0.70;;;;;;;10.25;43.76;99624.75;5037518;28;20056;-80
2021/04/06 12:45:42;;;;;;;21.48;1.50;;;;;;;9.88;44.11;99637.44;5036413;28;20048;-79
2021/04/06 12:48:27;;;;;;;2.20;0.93;;;;;;;9.79;45.40;99644.09;5031897;28;20048;-80
2021/04/06 12:51:12;;;;;;;2.65;0.73;;;;;;;9.72;45.43;99625.66;5036355;28;20048;-80
2021/04/06 12:53:57;;;;;;;1.23;0.70;;;;;;;9.72;45.09;99624.84;5036138;28;20044;-80
2021/04/06 12:56:42;;;;;;;4.82;1.52;;;;;;;9.78;45.84;99634.38;5035981;28;20048;-79
2021/04/06 12:59:27;;;;;;;3.40;0.60;;;;;;;9.80;45.41;99637.56;5036161;28;20044;-79
2021/04/06 13:02:12;;;;;;;1.20;0.50;;;;;;;9.56;46.29;99645.59;5032302;28;20044;-80
2021/04/06 13:04:57;;;;;;;1.27;0.57;;;;;;;9.44;46.64;99628.19;5033836;28;20049;-79
2021/04/06 13:07:43;;;;;;;2.30;0.80;;;;;;;9.59;46.43;99656.59;5037894;28;20041;-79
2021/04/06 13:10:28;;;;;;;4.25;0.90;;;;;;;9.54;46.41;99664.97;5034674;28;20041;-79